Time;durP1;ratioP1;P1;durP2;ratioP2;P2;SDS_P1;SDS_P2;PMS_P1;PMS_P2;Temp;Humidity;BMP_temperature;BMP_pressure;BME280_temperature;BME280_humidity;BME280_pressure;Samples;Min_cycle;Max_cycle;Signal;HPM_P1;HPM_P2
2021/11/22 00:00:53;;;;;;;14.30;4.50;;;3.00;99.90;;;;;;5146077;27;20197;-68
2021/11/22 00:03:29;;;;;;;20.77;4.27;;;3.00;99.90;;;;;;5147304;27;20201;-68
2021/11/22 00:05:57;;;;;;;16.93;5.07;;;3.00;99.90;;;;;;5106007;27;20201;-68
2021/11/22 00:08:26;;;;;;;25.40;5.47;;;3.00;99.90;;;;;;5145140;27;20190;-68
2021/11/22 00:10:54;;;;;;;10.63;4.30;;;3.00;99.90;;;;;;5127502;27;20178;-68
2021/11/22 00:13:25;;;;;;;15.90;4.47;;;3.00;99.90;;;;;;5149075;27;20197;-68
2021/11/22 00:15:56;;;;;;;20.03;4.47;;;3.00;99.90;;;;;;5143360;27;20622;-68
2021/11/22 00:18:25;;;;;;;18.13;4.70;;;3.00;99.90;;;;;;5144290;27;20213;-68
2021/11/22 00:20:55;;;;;;;13.00;4.80;;;3.10;99.90;;;;;;5142221;27;20567;-68
2021/11/22 00:23:24;;;;;;;10.63;4.77;;;3.10;99.90;;;;;;5150150;27;20239;-67
2021/11/22 00:25:52;;;;;;;10.77;4.07;;;3.20;99.90;;;;;;5142960;27;20197;-68
2021/11/22 00:28:21;;;;;;;14.67;4.13;;;3.20;99.90;;;;;;5144192;27;20265;-68
2021/11/22 00:30:49;;;;;;;14.80;4.30;;;3.30;99.90;;;;;;5141214;27;20233;-68
2021/11/22 00:33:20;;;;;;;15.27;4.90;;;3.30;99.90;;;;;;5146641;27;20224;-68
2021/11/22 00:35:50;;;;;;;13.27;4.07;;;3.30;99.90;;;;;;5158707;27;20250;-68
2021/11/22 00:38:20;;;;;;;14.40;3.70;;;3.30;99.90;;;;;;5148181;27;20704;-69
2021/11/22 00:40:49;;;;;;;11.97;3.70;;;3.30;99.90;;;;;;5145813;27;20244;-68
2021/11/22 00:43:21;;;;;;;22.10;3.77;;;3.30;99.90;;;;;;5136729;27;20238;-68
2021/11/22 00:45:51;;;;;;;15.60;3.30;;;3.30;99.90;;;;;;5146509;27;20198;-68
2021/11/22 00:48:21;;;;;;;14.13;3.90;;;3.40;99.90;;;;;;5145831;27;20209;-68
2021/11/22 00:50:50;;;;;;;17.93;3.90;;;3.40;99.90;;;;;;5147988;27;20268;-68
2021/11/22 00:53:23;;;;;;;13.27;3.80;;;3.30;99.90;;;;;;5152910;27;20231;-68
2021/11/22 00:55:51;;;;;;;16.90;3.60;;;3.40;99.90;;;;;;5147271;27;20228;-68
2021/11/22 00:58:20;;;;;;;12.97;3.87;;;3.40;99.90;;;;;;5141428;27;20198;-68
2021/11/22 01:00:49;;;;;;;10.63;3.80;;;3.40;99.90;;;;;;5142751;27;20296;-68
2021/11/22 01:03:56;;;;;;;14.97;3.70;;;3.50;99.90;;;;;;5142199;27;20207;-68
2021/11/22 01:07:03;;;;;;;10.50;3.70;;;3.60;99.90;;;;;;5145562;27;20199;-68
2021/11/22 01:09:33;;;;;;;11.03;4.03;;;3.50;99.90;;;;;;5153531;27;20177;-68
2021/11/22 01:12:02;;;;;;;13.83;3.90;;;3.60;99.90;;;;;;5141742;27;20248;-68
2021/11/22 01:14:30;;;;;;;18.13;3.93;;;3.60;99.90;;;;;;5126115;27;20185;-68
2021/11/22 01:16:59;;;;;;;9.27;3.97;;;3.50;99.90;;;;;;5144127;27;21717;-68
2021/11/22 01:19:28;;;;;;;12.87;4.00;;;3.50;99.90;;;;;;5155835;27;20270;-68
2021/11/22 01:21:57;;;;;;;10.77;4.10;;;3.50;99.90;;;;;;5126880;27;20185;-68
2021/11/22 01:24:25;;;;;;;18.77;4.37;;;3.50;99.90;;;;;;5145801;27;20265;-68
2021/11/22 01:26:55;;;;;;;12.33;3.80;;;3.50;99.90;;;;;;5144273;27;20280;-69
2021/11/22 01:29:24;;;;;;;11.00;3.40;;;3.40;99.90;;;;;;5133835;27;20632;-68
2021/11/22 01:31:52;;;;;;;12.30;3.50;;;3.40;99.90;;;;;;5142335;27;20265;-68
2021/11/22 01:34:20;;;;;;;12.80;3.63;;;3.40;99.90;;;;;;5143773;27;20391;-68
2021/11/22 01:36:49;;;;;;;13.57;3.80;;;3.40;99.90;;;;;;5123201;27;20214;-68
2021/11/22 01:39:17;;;;;;;13.00;4.10;;;3.40;99.90;;;;;;5156178;27;20197;-68
2021/11/22 01:41:46;;;;;;;10.60;3.87;;;3.50;99.90;;;;;;5135475;27;20201;-68
2021/11/22 01:44:16;;;;;;;11.00;3.33;;;3.50;99.90;;;;;;5126251;27;20222;-68
2021/11/22 01:46:48;;;;;;;16.67;3.90;;;3.50;99.90;;;;;;5141974;27;20276;-68
2021/11/22 01:49:17;;;;;;;8.67;3.53;;;3.40;99.90;;;;;;5138557;27;20224;-69
2021/11/22 01:51:46;;;;;;;10.37;3.60;;;3.30;99.90;;;;;;5150298;27;20186;-69
2021/11/22 01:54:16;;;;;;;12.67;3.70;;;3.30;99.90;;;;;;5142291;27;20203;-68
2021/11/22 01:56:48;;;;;;;10.57;3.50;;;3.20;99.90;;;;;;5139456;27;20225;-69
2021/11/22 01:59:19;;;;;;;14.27;4.27;;;3.10;99.90;;;;;;5137264;27;20198;-68
2021/11/22 02:01:48;;;;;;;9.07;3.70;;;3.10;99.90;;;;;;5133668;27;20296;-68
2021/11/22 02:04:17;;;;;;;17.37;3.73;;;3.10;99.90;;;;;;5134864;27;20205;-68
2021/11/22 02:06:46;;;;;;;10.87;4.03;;;3.10;99.90;;;;;;5135994;27;20761;-68
2021/11/22 02:09:14;;;;;;;9.53;3.70;;;3.10;99.90;;;;;;5144871;27;20189;-68
2021/11/22 02:11:43;;;;;;;9.33;3.50;;;3.10;99.90;;;;;;5137391;27;20217;-68
2021/11/22 02:14:11;;;;;;;18.47;4.50;;;3.00;99.90;;;;;;5109301;27;20625;-68
2021/11/22 02:16:41;;;;;;;12.37;3.83;;;3.00;99.90;;;;;;5118683;27;20221;-68
2021/11/22 02:19:10;;;;;;;10.83;3.60;;;3.10;99.90;;;;;;5140872;27;20289;-68
2021/11/22 02:21:43;;;;;;;7.80;3.57;;;3.00;99.90;;;;;;5140188;27;20198;-68
2021/11/22 02:24:12;;;;;;;6.17;3.60;;;3.00;99.90;;;;;;5144136;27;20673;-68
2021/11/22 02:26:40;;;;;;;10.93;3.43;;;3.00;99.90;;;;;;5138263;27;20210;-67
2021/11/22 02:29:09;;;;;;;10.63;4.03;;;3.00;99.90;;;;;;5146478;27;20209;-68
2021/11/22 02:31:38;;;;;;;13.10;4.03;;;3.00;99.90;;;;;;5146323;27;20242;-68
2021/11/22 02:34:07;;;;;;;18.03;4.00;;;3.00;99.90;;;;;;5129842;27;20200;-69
2021/11/22 02:36:36;;;;;;;8.20;3.70;;;3.00;99.90;;;;;;5118745;27;20201;-68
2021/11/22 02:39:06;;;;;;;13.07;3.80;;;3.00;99.90;;;;;;5144049;27;20193;-68
2021/11/22 02:41:38;;;;;;;15.00;4.53;;;3.00;99.90;;;;;;5123566;27;20359;-68
2021/11/22 02:44:07;;;;;;;8.77;3.83;;;3.00;99.90;;;;;;5149445;27;20285;-68
2021/11/22 02:46:35;;;;;;;10.43;3.90;;;2.90;99.90;;;;;;5136691;27;20190;-68
2021/11/22 02:49:04;;;;;;;7.30;4.00;;;2.90;99.90;;;;;;5149110;27;20193;-68
2021/11/22 02:51:32;;;;;;;15.03;4.23;;;2.90;99.90;;;;;;5158656;27;20233;-68
2021/11/22 02:54:01;;;;;;;12.30;3.97;;;3.00;99.90;;;;;;5141220;27;20205;-68
2021/11/22 02:56:33;;;;;;;10.77;4.30;;;3.00;99.90;;;;;;5157936;27;20703;-68
2021/11/22 02:59:03;;;;;;;11.70;4.20;;;3.00;99.90;;;;;;5146483;27;20194;-68
2021/11/22 03:01:32;;;;;;;8.57;4.53;;;3.00;99.90;;;;;;5146978;27;20222;-68
2021/11/22 03:04:00;;;;;;;12.00;4.40;;;3.10;99.90;;;;;;5145251;27;20598;-68
2021/11/22 03:06:28;;;;;;;7.93;4.10;;;3.00;99.90;;;;;;5145614;27;20250;-68
2021/11/22 03:08:57;;;;;;;10.33;4.20;;;3.00;99.90;;;;;;5146001;27;20244;-68
2021/11/22 03:11:25;;;;;;;14.40;4.37;;;3.00;99.90;;;;;;5122810;27;20193;-68
2021/11/22 03:13:55;;;;;;;8.67;4.00;;;2.90;99.90;;;;;;5141674;27;20675;-68
2021/11/22 03:16:24;;;;;;;9.90;4.07;;;2.80;99.90;;;;;;5139415;27;20256;-68
2021/11/22 03:18:53;;;;;;;13.83;4.00;;;2.80;99.90;;;;;;5153495;27;20608;-68
2021/11/22 03:21:21;;;;;;;10.63;4.13;;;2.80;99.90;;;;;;5145385;27;20290;-68
2021/11/22 03:23:49;;;;;;;6.47;3.90;;;2.80;99.90;;;;;;5148896;27;20200;-68
2021/11/22 03:26:18;;;;;;;12.53;4.17;;;2.70;99.90;;;;;;5138855;27;20202;-68
2021/11/22 03:28:47;;;;;;;13.50;4.17;;;2.70;99.90;;;;;;5144423;27;20259;-68
2021/11/22 03:31:17;;;;;;;10.70;4.30;;;2.70;99.90;;;;;;5139357;27;20190;-68
2021/11/22 03:33:47;;;;;;;11.90;4.00;;;2.70;99.90;;;;;;5152030;27;20225;-68
2021/11/22 03:36:16;;;;;;;9.40;3.63;;;2.70;99.90;;;;;;5128179;27;20207;-68
2021/11/22 03:38:44;;;;;;;8.13;3.87;;;2.60;99.90;;;;;;5130829;27;20588;-67
2021/11/22 03:41:14;;;;;;;14.07;3.77;;;2.60;99.90;;;;;;5147364;27;20274;-68
2021/11/22 03:43:49;;;;;;;10.03;3.90;;;2.60;99.90;;;;;;5122787;27;20755;-68
2021/11/22 03:46:20;;;;;;;11.10;3.90;;;2.60;99.90;;;;;;5160822;27;20594;-69
2021/11/22 03:48:50;;;;;;;5.20;4.20;;;2.60;99.90;;;;;;5147683;27;20262;-68
2021/11/22 03:51:19;;;;;;;9.43;4.10;;;2.60;99.90;;;;;;5126208;27;20617;-68
2021/11/22 03:53:55;;;;;;;13.83;4.10;;;2.60;99.90;;;;;;5143098;27;20225;-68
2021/11/22 03:56:24;;;;;;;9.53;3.93;;;2.60;99.90;;;;;;5136526;27;20200;-68
2021/11/22 03:58:52;;;;;;;5.07;3.83;;;2.60;99.90;;;;;;5139735;27;20360;-68
2021/11/22 04:01:25;;;;;;;14.47;4.10;;;2.60;99.90;;;;;;5145377;27;20213;-68
2021/11/22 04:03:54;;;;;;;10.10;3.83;;;2.50;99.90;;;;;;5135723;27;20198;-68
2021/11/22 04:06:25;;;;;;;4.60;3.80;;;2.40;99.90;;;;;;5136089;27;20230;-68
2021/11/22 04:08:54;;;;;;;13.73;3.77;;;2.40;99.90;;;;;;5140282;27;20858;-68
2021/11/22 04:11:22;;;;;;;7.83;3.50;;;2.40;99.90;;;;;;5147534;27;20200;-68
2021/11/22 04:13:52;;;;;;;6.13;3.70;;;2.40;99.90;;;;;;5146928;27;20782;-67
2021/11/22 04:16:21;;;;;;;5.00;3.40;;;2.40;99.90;;;;;;5138423;27;20218;-67
2021/11/22 04:18:52;;;;;;;5.80;3.63;;;2.40;99.90;;;;;;5146126;27;20190;-68
2021/11/22 04:21:22;;;;;;;4.53;3.30;;;2.30;99.90;;;;;;5129434;27;20269;-68
2021/11/22 04:23:55;;;;;;;8.00;3.60;;;2.30;99.90;;;;;;5138935;27;20254;-67
2021/11/22 04:26:24;;;;;;;7.83;3.80;;;2.30;99.90;;;;;;5139816;27;20612;-68
2021/11/22 04:28:52;;;;;;;12.60;4.07;;;2.30;99.90;;;;;;5145043;27;20200;-68
2021/11/22 04:31:21;;;;;;;5.13;3.80;;;2.20;99.90;;;;;;5140211;27;20868;-68
2021/11/22 04:33:51;;;;;;;5.90;4.47;;;2.20;99.90;;;;;;5140825;27;20194;-67
2021/11/22 04:36:19;;;;;;;5.80;4.20;;;2.30;99.90;;;;;;5144183;27;20177;-68
2021/11/22 04:38:48;;;;;;;4.97;4.30;;;2.30;99.90;;;;;;5124804;27;20186;-67
2021/11/22 04:41:16;;;;;;;5.17;3.73;;;2.40;99.90;;;;;;5131893;27;20214;-68
2021/11/22 04:43:45;;;;;;;9.97;4.10;;;2.50;99.90;;;;;;5144614;27;20228;-68
2021/11/22 04:46:13;;;;;;;8.57;4.00;;;2.70;99.90;;;;;;5146584;27;20366;-68
2021/11/22 04:48:44;;;;;;;8.60;4.07;;;2.70;99.90;;;;;;5147438;27;20201;-68
2021/11/22 04:51:14;;;;;;;4.33;3.80;;;2.70;99.90;;;;;;5132675;27;20300;-68
2021/11/22 04:53:43;;;;;;;6.40;3.70;;;2.70;99.90;;;;;;5141257;27;20209;-68
2021/11/22 04:56:11;;;;;;;5.50;3.73;;;2.70;99.90;;;;;;5125850;27;20217;-68
2021/11/22 04:58:45;;;;;;;3.90;3.50;;;2.70;99.90;;;;;;5139808;27;20727;-68
2021/11/22 05:01:13;;;;;;;7.93;3.87;;;2.80;99.90;;;;;;5142330;27;20205;-68
2021/11/22 05:03:42;;;;;;;6.83;3.67;;;2.70;99.90;;;;;;5141513;27;20206;-68
2021/11/22 05:06:10;;;;;;;7.97;3.90;;;2.70;99.90;;;;;;5140278;27;20219;-68
2021/11/22 05:08:40;;;;;;;12.70;3.50;;;2.80;99.90;;;;;;5154846;27;20221;-67
2021/11/22 05:11:09;;;;;;;6.67;3.70;;;2.90;99.90;;;;;;5134597;27;20210;-68
2021/11/22 05:13:44;;;;;;;8.33;4.30;;;3.00;99.90;;;;;;5132292;27;20520;-68
2021/11/22 05:16:12;;;;;;;4.53;3.83;;;3.10;99.90;;;;;;5147889;27;20618;-68
2021/11/22 05:18:40;;;;;;;8.27;4.10;;;3.00;99.90;;;;;;5144254;27;20194;-68
2021/11/22 05:21:09;;;;;;;10.13;3.50;;;3.00;99.90;;;;;;5141282;27;20194;-68
2021/11/22 05:23:37;;;;;;;10.23;4.13;;;3.00;99.90;;;;;;5140745;27;20217;-68
2021/11/22 05:26:07;;;;;;;11.40;3.73;;;3.10;99.90;;;;;;5133525;27;20837;-67
2021/11/22 05:28:36;;;;;;;10.60;3.87;;;3.10;99.90;;;;;;5146717;27;20265;-68
2021/11/22 05:31:04;;;;;;;13.10;3.57;;;3.20;99.90;;;;;;5134431;27;20190;-68
2021/11/22 05:33:34;;;;;;;5.87;3.73;;;3.20;99.90;;;;;;5144442;27;20223;-68
2021/11/22 05:36:03;;;;;;;16.70;3.60;;;3.20;99.90;;;;;;5139638;27;20262;-68
2021/11/22 05:38:31;;;;;;;4.93;3.50;;;3.20;99.90;;;;;;5137680;27;20194;-68
2021/11/22 05:41:00;;;;;;;7.37;3.60;;;3.20;99.90;;;;;;5121514;27;20213;-68
2021/11/22 05:43:30;;;;;;;6.83;3.57;;;3.30;99.90;;;;;;5131211;27;20262;-68
2021/11/22 05:45:58;;;;;;;5.97;3.43;;;3.20;99.90;;;;;;5142253;27;20198;-68
2021/11/22 05:48:27;;;;;;;7.13;4.03;;;3.20;99.90;;;;;;5142483;27;20188;-68
2021/11/22 05:50:57;;;;;;;8.07;3.70;;;3.30;99.90;;;;;;5147493;27;20249;-68
2021/11/22 05:53:27;;;;;;;7.03;3.50;;;3.30;99.90;;;;;;5152531;27;20281;-68
2021/11/22 05:55:56;;;;;;;10.73;3.73;;;3.30;99.90;;;;;;5131082;27;20197;-68
2021/11/22 05:58:25;;;;;;;5.10;3.33;;;3.30;99.90;;;;;;5141786;27;20260;-68
2021/11/22 06:00:55;;;;;;;5.83;3.20;;;3.20;99.90;;;;;;5142789;27;20277;-68
2021/11/22 06:03:24;;;;;;;6.93;3.43;;;3.20;99.90;;;;;;5140423;27;20308;-68
2021/11/22 06:05:52;;;;;;;14.40;3.80;;;3.20;99.90;;;;;;5125065;27;20189;-69
2021/11/22 06:08:21;;;;;;;8.60;3.43;;;3.20;99.90;;;;;;5118413;27;20396;-69
2021/11/22 06:10:50;;;;;;;13.93;4.80;;;3.10;99.90;;;;;;5136711;27;20281;-68
2021/11/22 06:13:21;;;;;;;9.43;3.67;;;3.20;99.90;;;;;;5140660;27;20177;-68
2021/11/22 06:15:51;;;;;;;8.77;3.83;;;3.30;99.90;;;;;;5139785;27;20201;-68
2021/11/22 06:18:21;;;;;;;11.83;3.70;;;3.40;99.90;;;;;;5133208;27;20189;-68
2021/11/22 06:20:50;;;;;;;8.17;3.43;;;3.40;99.90;;;;;;5116532;27;20191;-68
2021/11/22 06:23:19;;;;;;;6.90;3.10;;;3.40;99.90;;;;;;5135646;27;20218;-68
2021/11/22 06:25:47;;;;;;;9.50;3.07;;;3.40;99.90;;;;;;5132335;27;20190;-68
2021/11/22 06:28:16;;;;;;;6.47;3.43;;;3.40;99.90;;;;;;5122762;27;20192;-67
2021/11/22 06:30:45;;;;;;;7.27;3.53;;;3.40;99.90;;;;;;5135859;27;20206;-67
2021/11/22 06:33:14;;;;;;;5.37;4.30;;;3.30;99.90;;;;;;5136309;27;20182;-68
2021/11/22 06:35:44;;;;;;;9.00;3.67;;;3.30;99.90;;;;;;5142779;27;20230;-67
2021/11/22 06:38:14;;;;;;;6.20;3.50;;;3.20;99.90;;;;;;5123577;27;22182;-67
2021/11/22 06:40:42;;;;;;;7.73;2.90;;;3.30;99.90;;;;;;5138046;27;20245;-67
2021/11/22 06:43:11;;;;;;;14.27;3.00;;;3.30;99.90;;;;;;5127767;27;20236;-67
2021/11/22 06:45:40;;;;;;;6.87;2.80;;;3.40;99.90;;;;;;5148605;27;20186;-67
2021/11/22 06:48:09;;;;;;;9.80;3.10;;;3.40;99.90;;;;;;5137388;27;20217;-67
2021/11/22 06:50:37;;;;;;;5.83;2.70;;;3.40;99.90;;;;;;5140105;27;20229;-67
2021/11/22 06:53:08;;;;;;;16.60;3.10;;;3.30;99.90;;;;;;5130892;27;20219;-67
2021/11/22 06:55:36;;;;;;;3.63;2.53;;;3.20;99.90;;;;;;5141238;27;20250;-67
2021/11/22 06:58:05;;;;;;;7.37;2.53;;;3.30;99.90;;;;;;5114723;27;20186;-67
2021/11/22 07:00:34;;;;;;;4.33;2.53;;;3.30;99.90;;;;;;5135065;27;20198;-68
2021/11/22 07:03:03;;;;;;;5.17;3.60;;;3.30;99.90;;;;;;5139151;27;20233;-68
2021/11/22 07:05:37;;;;;;;9.50;3.47;;;3.20;99.90;;;;;;5136180;27;20251;-68
2021/11/22 07:08:08;;;;;;;8.13;3.47;;;3.30;99.90;;;;;;5098604;27;20596;-67
2021/11/22 07:10:36;;;;;;;6.97;2.93;;;3.30;99.90;;;;;;5119812;27;20189;-67
2021/11/22 07:13:05;;;;;;;5.50;3.03;;;3.30;99.90;;;;;;5145450;27;20193;-67
2021/11/22 07:15:36;;;;;;;3.50;3.10;;;3.20;99.90;;;;;;5140286;27;20204;-67
2021/11/22 07:18:07;;;;;;;5.63;3.00;;;3.20;99.90;;;;;;5150108;27;20221;-67
2021/11/22 07:20:36;;;;;;;7.17;3.03;;;3.10;99.90;;;;;;5152259;27;20685;-67
2021/11/22 07:23:04;;;;;;;6.27;2.80;;;3.00;99.90;;;;;;5159868;27;20212;-67
2021/11/22 07:25:36;;;;;;;3.70;3.10;;;2.90;99.90;;;;;;5131488;27;20193;-68
2021/11/22 07:28:05;;;;;;;6.80;3.20;;;2.80;99.90;;;;;;5147661;27;20201;-67
2021/11/22 07:30:34;;;;;;;8.47;3.20;;;2.80;99.90;;;;;;5149389;27;20233;-67
2021/11/22 07:33:02;;;;;;;8.07;3.50;;;2.90;99.90;;;;;;5126718;27;20193;-68
2021/11/22 07:35:31;;;;;;;3.97;3.23;;;2.90;99.90;;;;;;5147987;27;20597;-67
2021/11/22 07:38:00;;;;;;;8.10;3.80;;;2.80;99.90;;;;;;5143918;27;20283;-68
2021/11/22 07:40:30;;;;;;;5.53;3.17;;;2.80;99.90;;;;;;5148459;27;20289;-68
2021/11/22 07:43:01;;;;;;;7.27;3.70;;;2.70;99.90;;;;;;5160733;27;20236;-67
2021/11/22 07:45:30;;;;;;;9.47;4.30;;;2.60;99.90;;;;;;5146953;27;20193;-67
2021/11/22 07:47:58;;;;;;;10.97;3.40;;;2.60;99.90;;;;;;5134496;27;20193;-68
2021/11/22 07:50:29;;;;;;;4.60;3.67;;;2.70;99.90;;;;;;5141016;27;20254;-67
2021/11/22 07:52:58;;;;;;;8.03;3.90;;;2.80;99.90;;;;;;5134894;27;20189;-68
2021/11/22 07:55:27;;;;;;;5.27;3.60;;;2.80;99.90;;;;;;5146392;27;20209;-68
2021/11/22 07:57:57;;;;;;;12.43;3.43;;;2.80;99.90;;;;;;5142901;27;20206;-67
2021/11/22 08:00:28;;;;;;;5.53;3.70;;;2.90;99.90;;;;;;5123899;27;20272;-67
2021/11/22 08:02:57;;;;;;;12.43;4.13;;;3.10;99.90;;;;;;5144699;27;20309;-67
2021/11/22 08:05:28;;;;;;;8.07;4.10;;;3.10;99.90;;;;;;5149813;27;20277;-68
2021/11/22 08:07:59;;;;;;;6.73;4.20;;;3.20;99.90;;;;;;5151371;27;20201;-67
2021/11/22 08:10:29;;;;;;;6.80;3.77;;;3.20;99.90;;;;;;5138012;27;20205;-68
2021/11/22 08:12:59;;;;;;;4.27;3.73;;;3.10;99.90;;;;;;5142617;27;20556;-68
2021/11/22 08:15:32;;;;;;;6.50;4.07;;;3.10;99.90;;;;;;5141161;27;20258;-67
2021/11/22 08:18:03;;;;;;;12.70;4.03;;;3.20;99.90;;;;;;5151907;27;20228;-68
2021/11/22 08:20:33;;;;;;;7.77;3.87;;;3.40;99.90;;;;;;5124467;27;20193;-67
2021/11/22 08:23:02;;;;;;;9.83;3.80;;;3.40;99.90;;;;;;5138541;27;20196;-67
2021/11/22 08:25:32;;;;;;;8.70;3.80;;;3.50;99.90;;;;;;5143682;27;20198;-68
2021/11/22 08:28:01;;;;;;;8.80;3.73;;;3.50;99.90;;;;;;5143943;27;20251;-67
2021/11/22 08:30:33;;;;;;;5.03;3.77;;;3.60;99.90;;;;;;5145954;27;20193;-68
2021/11/22 08:33:01;;;;;;;4.93;3.77;;;3.60;99.90;;;;;;5130173;27;20246;-68
2021/11/22 08:35:32;;;;;;;6.70;3.50;;;3.70;99.90;;;;;;5119734;27;20229;-67
2021/11/22 08:38:01;;;;;;;8.63;3.97;;;3.70;99.90;;;;;;5130376;27;20202;-67
2021/11/22 08:40:32;;;;;;;9.07;3.73;;;3.70;99.90;;;;;;5129287;27;20186;-67
2021/11/22 08:43:00;;;;;;;7.90;3.70;;;3.80;99.90;;;;;;5142554;27;20317;-68
2021/11/22 08:45:30;;;;;;;4.67;3.77;;;3.90;99.90;;;;;;5153761;27;20205;-68
2021/11/22 08:48:01;;;;;;;9.70;3.90;;;3.80;99.90;;;;;;5147499;27;20277;-68
2021/11/22 08:50:30;;;;;;;7.17;4.00;;;3.90;99.90;;;;;;5140564;27;20198;-68
2021/11/22 08:53:00;;;;;;;10.37;3.83;;;4.00;99.90;;;;;;5128050;27;20209;-68
2021/11/22 08:55:30;;;;;;;17.83;3.73;;;4.00;99.90;;;;;;5145987;27;20670;-68
2021/11/22 08:57:59;;;;;;;4.00;3.50;;;4.20;99.90;;;;;;5148806;27;20253;-68
2021/11/22 09:00:31;;;;;;;6.07;3.20;;;4.30;99.90;;;;;;5149226;27;20197;-67
2021/11/22 09:03:00;;;;;;;6.23;3.63;;;4.40;99.90;;;;;;5157576;27;20197;-68
2021/11/22 09:05:29;;;;;;;9.53;3.30;;;4.50;99.90;;;;;;5126231;27;20215;-68
2021/11/22 09:07:59;;;;;;;5.53;3.07;;;4.60;99.90;;;;;;5144503;27;20253;-68
2021/11/22 09:10:30;;;;;;;6.93;3.10;;;4.80;99.90;;;;;;5146775;27;20200;-68
2021/11/22 09:12:59;;;;;;;9.10;3.63;;;4.90;99.90;;;;;;5142312;27;20193;-68
2021/11/22 09:15:27;;;;;;;3.73;3.10;;;5.00;99.90;;;;;;5147078;27;20698;-68
2021/11/22 09:17:58;;;;;;;6.43;2.93;;;5.10;99.90;;;;;;5129118;27;20193;-68
2021/11/22 09:20:26;;;;;;;5.27;3.40;;;5.20;99.90;;;;;;5145049;27;20197;-68
2021/11/22 09:22:58;;;;;;;4.60;2.60;;;5.30;99.90;;;;;;5153501;27;20199;-68
2021/11/22 09:25:27;;;;;;;5.10;2.87;;;5.40;99.90;;;;;;5153510;27;20269;-68
2021/11/22 09:27:56;;;;;;;5.70;3.33;;;5.40;99.90;;;;;;5130580;27;20194;-68
2021/11/22 09:30:24;;;;;;;3.27;2.63;;;5.60;99.90;;;;;;5139530;27;20204;-68
2021/11/22 09:32:53;;;;;;;5.67;2.57;;;5.70;99.90;;;;;;5153635;27;20202;-68
2021/11/22 09:35:26;;;;;;;6.07;2.83;;;5.80;99.90;;;;;;5129414;27;20257;-68
2021/11/22 09:37:55;;;;;;;3.07;2.60;;;5.90;99.90;;;;;;5134135;27;20201;-68
2021/11/22 09:40:24;;;;;;;5.43;2.50;;;6.00;99.90;;;;;;5141576;27;20667;-68
2021/11/22 09:42:55;;;;;;;4.80;2.50;;;6.00;99.90;;;;;;5125620;27;20588;-69
2021/11/22 09:45:27;;;;;;;10.63;2.80;;;6.10;99.90;;;;;;5127653;27;20262;-68
2021/11/22 09:47:56;;;;;;;7.87;2.30;;;6.20;99.90;;;;;;5129770;27;20781;-68
2021/11/22 09:50:28;;;;;;;4.50;2.10;;;6.40;99.90;;;;;;5152004;27;20206;-68
2021/11/22 09:52:56;;;;;;;5.27;2.40;;;6.50;99.90;;;;;;5149639;27;20197;-68
2021/11/22 09:55:29;;;;;;;5.40;2.80;;;6.50;99.90;;;;;;5146298;27;20189;-68
2021/11/22 09:57:59;;;;;;;5.40;2.20;;;6.50;99.90;;;;;;5144038;27;20846;-68
2021/11/22 10:00:35;;;;;;;4.97;2.47;;;6.60;99.90;;;;;;5150992;27;20205;-67
2021/11/22 10:03:09;;;;;;;10.67;2.30;;;6.70;99.90;;;;;;5147037;27;20663;-65
2021/11/22 10:05:42;;;;;;;2.30;2.10;;;6.70;99.90;;;;;;5146428;27;20269;-66
2021/11/22 10:08:13;;;;;;;6.07;2.30;;;6.70;99.90;;;;;;5147607;27;20250;-67
2021/11/22 10:10:44;;;;;;;8.33;2.07;;;6.80;99.90;;;;;;5144874;27;20209;-67
2021/11/22 10:13:37;;;;;;;1.90;1.80;;;7.00;99.90;;;;;;5144531;27;20193;-67
2021/11/22 10:16:24;;;;;;;2.27;2.10;;;7.10;99.90;;;;;;5134920;27;20840;-67
2021/11/22 10:18:55;;;;;;;2.80;1.83;;;7.20;99.90;;;;;;5146539;27;20620;-67
2021/11/22 10:21:28;;;;;;;2.87;1.90;;;7.40;99.90;;;;;;5150898;27;20197;-67
2021/11/22 10:24:04;;;;;;;4.20;2.03;;;7.60;99.90;;;;;;5145550;27;20185;-67
2021/11/22 10:26:42;;;;;;;2.60;2.40;;;7.70;99.90;;;;;;5144407;27;20201;-67
2021/11/22 10:29:22;;;;;;;2.60;1.77;;;7.80;99.90;;;;;;5147147;27;20190;-67
2021/11/22 10:31:54;;;;;;;4.63;1.90;;;7.90;99.90;;;;;;5148751;27;20587;-68
2021/11/22 10:34:23;;;;;;;4.23;1.90;;;7.80;99.90;;;;;;5148179;27;20249;-67
2021/11/22 10:36:58;;;;;;;1.83;1.73;;;7.90;99.90;;;;;;5144933;27;20193;-67
2021/11/22 10:39:28;;;;;;;2.63;1.83;;;7.90;99.90;;;;;;5139096;27;20193;-67
2021/11/22 10:41:58;;;;;;;3.33;1.77;;;7.80;99.90;;;;;;5132516;27;20197;-68
2021/11/22 10:44:32;;;;;;;2.53;1.70;;;7.90;99.90;;;;;;5145669;27;20277;-68
2021/11/22 10:47:10;;;;;;;4.70;1.50;;;8.00;99.90;;;;;;5144270;27;20800;-68
2021/11/22 10:49:42;;;;;;;2.33;1.60;;;8.00;99.90;;;;;;5145980;27;20189;-67
2021/11/22 10:52:16;;;;;;;6.13;1.97;;;7.90;99.90;;;;;;5135196;27;20184;-67
2021/11/22 10:54:54;;;;;;;2.50;1.53;;;7.90;99.90;;;;;;5151418;27;20185;-66
2021/11/22 10:57:22;;;;;;;1.57;1.50;;;8.10;99.90;;;;;;5143594;27;20193;-67
2021/11/22 10:59:51;;;;;;;4.90;1.90;;;8.10;99.90;;;;;;5126171;27;21866;-67
2021/11/22 11:02:20;;;;;;;1.40;1.40;;;8.40;99.90;;;;;;5133983;27;20200;-67
2021/11/22 11:04:48;;;;;;;1.70;1.60;;;8.30;99.90;;;;;;5131416;27;20205;-67
2021/11/22 11:07:19;;;;;;;3.77;1.90;;;8.30;99.90;;;;;;5143438;27;20222;-68
2021/11/22 11:09:54;;;;;;;1.80;1.57;;;8.40;99.90;;;;;;5122703;27;20877;-67
2021/11/22 11:12:24;;;;;;;1.30;1.30;;;8.50;99.90;;;;;;5142564;27;20245;-67
2021/11/22 11:14:54;;;;;;;1.63;1.40;;;8.50;99.90;;;;;;5142329;27;20197;-67
2021/11/22 11:17:31;;;;;;;1.50;1.40;;;8.60;99.90;;;;;;5146515;27;20694;-67
2021/11/22 11:20:09;;;;;;;1.30;1.30;;;8.80;99.90;;;;;;5146198;27;20535;-68
2021/11/22 11:22:39;;;;;;;1.70;1.60;;;8.90;99.90;;;;;;5140674;27;20193;-67
2021/11/22 11:25:09;;;;;;;2.47;1.80;;;8.90;99.90;;;;;;5153419;27;20247;-67
2021/11/22 11:27:43;;;;;;;2.80;1.50;;;8.90;99.90;;;;;;5142752;27;20559;-67
2021/11/22 11:30:14;;;;;;;1.47;1.37;;;9.00;99.90;;;;;;5141616;27;20265;-67
2021/11/22 11:32:45;;;;;;;2.07;1.60;;;9.10;99.90;;;;;;5156617;27;20249;-67
2021/11/22 11:35:17;;;;;;;2.37;1.73;;;9.10;99.90;;;;;;5149426;27;20250;-67
2021/11/22 11:38:08;;;;;;;2.23;1.57;;;9.10;99.90;;;;;;5140677;27;20555;-67
2021/11/22 11:40:49;;;;;;;1.63;1.57;;;9.10;99.90;;;;;;5146904;27;20857;-67
2021/11/22 11:43:48;;;;;;;2.83;1.70;;;8.90;99.90;;;;;;5155397;27;20770;-67
2021/11/22 11:46:30;;;;;;;1.67;1.53;;;9.00;99.90;;;;;;5124563;27;20782;-68
2021/11/22 11:49:00;;;;;;;3.20;1.63;;;9.00;99.90;;;;;;5150963;27;20276;-67
2021/11/22 11:51:35;;;;;;;2.40;1.60;;;9.00;99.90;;;;;;5141385;27;20228;-67
2021/11/22 11:54:21;;;;;;;3.73;1.60;;;9.00;99.90;;;;;;5137916;27;20220;-67
2021/11/22 11:56:56;;;;;;;1.63;1.53;;;9.10;99.90;;;;;;5148462;27;20193;-67
2021/11/22 11:59:32;;;;;;;4.00;1.80;;;9.20;99.90;;;;;;5157460;27;20224;-68
2021/11/22 12:02:04;;;;;;;3.23;1.83;;;9.40;99.90;;;;;;5146219;27;20743;-67
2021/11/22 12:05:04;;;;;;;2.83;1.67;;;9.40;99.90;;;;;;5127565;27;20189;-67
2021/11/22 12:07:38;;;;;;;2.20;1.40;;;9.60;99.90;;;;;;5135049;27;20185;-67
2021/11/22 12:10:14;;;;;;;4.60;1.60;;;9.40;99.90;;;;;;5149233;27;20192;-67
2021/11/22 12:12:49;;;;;;;1.80;1.70;;;9.50;99.90;;;;;;5145627;27;20258;-67
2021/11/22 12:15:21;;;;;;;3.07;2.00;;;9.60;99.90;;;;;;5140757;27;20204;-67
2021/11/22 12:18:11;;;;;;;2.47;2.27;;;9.50;99.90;;;;;;5149619;27;20202;-67
2021/11/22 12:20:59;;;;;;;1.80;1.70;;;9.70;99.90;;;;;;5143000;27;20316;-67
2021/11/22 12:23:45;;;;;;;3.13;1.67;;;9.80;99.90;;;;;;5137862;27;20206;-68
2021/11/22 12:26:34;;;;;;;4.33;1.87;;;10.00;99.90;;;;;;5147167;27;20237;-68
2021/11/22 12:29:05;;;;;;;2.73;1.50;;;9.70;99.90;;;;;;5156753;27;20212;-67
2021/11/22 12:31:40;;;;;;;1.30;1.23;;;9.70;99.90;;;;;;5141455;27;20770;-67
2021/11/22 12:34:38;;;;;;;2.10;1.33;;;9.70;99.90;;;;;;5112210;27;20196;-67
2021/11/22 12:37:25;;;;;;;3.20;1.40;;;9.80;99.90;;;;;;5147260;27;20193;-67
2021/11/22 12:39:56;;;;;;;2.70;1.50;;;9.80;99.90;;;;;;5142293;27;20224;-67
2021/11/22 12:42:26;;;;;;;3.33;1.33;;;9.80;99.90;;;;;;5138834;27;20201;-67
2021/11/22 12:45:06;;;;;;;1.50;1.40;;;9.80;99.90;;;;;;5143709;27;20683;-68
2021/11/22 12:47:35;;;;;;;2.60;1.30;;;10.00;99.90;;;;;;5131620;27;20220;-67
2021/11/22 12:50:15;;;;;;;1.43;1.43;;;10.10;99.90;;;;;;5152196;27;20726;-67
2021/11/22 12:53:07;;;;;;;1.30;1.30;;;10.00;99.90;;;;;;5144680;27;20755;-67
2021/11/22 12:55:38;;;;;;;1.70;1.40;;;9.80;99.90;;;;;;5147242;27;20521;-67
2021/11/22 12:58:13;;;;;;;1.60;1.50;;;9.80;99.90;;;;;;5144257;27;20563;-67
2021/11/22 13:00:43;;;;;;;2.73;1.40;;;9.80;99.90;;;;;;5151884;27;20857;-67
2021/11/22 13:03:13;;;;;;;1.47;1.40;;;10.00;99.90;;;;;;5154208;27;20208;-67
2021/11/22 13:06:05;;;;;;;1.50;1.40;;;10.10;99.90;;;;;;5144525;27;20200;-67
2021/11/22 13:08:38;;;;;;;1.63;1.33;;;9.80;99.90;;;;;;5147408;27;20284;-67
2021/11/22 13:11:41;;;;;;;1.53;1.47;;;9.60;99.90;;;;;;5146386;27;20190;-67
2021/11/22 13:14:14;;;;;;;3.13;1.50;;;9.60;99.90;;;;;;5150985;27;20201;-67